Time;durP1;ratioP1;P1;durP2;ratioP2;P2;SDS_P1;SDS_P2;PMS_P1;PMS_P2;Temp;Humidity;BMP_temperature;BMP_pressure;BME280_temperature;BME280_humidity;BME280_pressure;Samples;Min_cycle;Max_cycle;Signal;HPM_P1;HPM_P2
2022/01/18 00:01:16;;;;;;;62.00;12.18;;;;;;;;;;5018471;28;92132;-71
2022/01/18 00:03:42;;;;;;;71.65;11.82;;;;;;;;;;5016588;28;94794;-70
2022/01/18 00:06:09;;;;;;;85.05;11.40;;;;;;;;;;5018185;28;93654;-70
2022/01/18 00:08:35;;;;;;;62.28;11.98;;;;;;;;;;5017514;28;93231;-70
2022/01/18 00:11:02;;;;;;;55.97;10.10;;;;;;;;;;5018176;28;93239;-71
2022/01/18 00:13:46;;;;;;;75.57;10.93;;;;;;;;;;5017970;28;93980;-70
2022/01/18 00:16:30;;;;;;;48.00;9.57;;;;;;;;;;5021248;28;92265;-71
2022/01/18 00:19:00;;;;;;;55.97;11.05;;;;;;;;;;5018176;28;93579;-71
2022/01/18 00:23:57;;;;;;;38.67;9.50;;;;;;;;;;5017824;28;93069;-71
2022/01/18 00:26:27;;;;;;;26.15;8.30;;;;;;;;;;5018503;28;93461;-71
2022/01/18 00:28:57;;;;;;;42.67;9.32;;;;;;;;;;5016156;28;94724;-70
2022/01/18 00:39:28;;;;;;;29.67;7.65;;;;;;;;;;5021423;28;93348;-70
2022/01/18 00:41:55;;;;;;;39.83;8.70;;;;;;;;;;5017855;28;92231;-71
2022/01/18 00:44:21;;;;;;;29.02;7.97;;;;;;;;;;5018447;28;93320;-71
2022/01/18 00:46:48;;;;;;;34.05;8.07;;;;;;;;;;5018501;28;92734;-71
2022/01/18 00:49:15;;;;;;;32.22;7.95;;;;;;;;;;5018364;28;92256;-71
2022/01/18 00:51:44;;;;;;;27.70;8.40;;;;;;;;;;5018384;28;93427;-71
2022/01/18 00:54:18;;;;;;;27.38;7.95;;;;;;;;;;5016253;28;95970;-71
2022/01/18 00:56:45;;;;;;;27.30;7.75;;;;;;;;;;5018176;28;92336;-70
2022/01/18 00:59:11;;;;;;;28.17;7.43;;;;;;;;;;5021099;28;93487;-71
2022/01/18 01:01:37;;;;;;;26.38;7.68;;;;;;;;;;5018251;28;92263;-71
2022/01/18 01:04:04;;;;;;;31.05;8.23;;;;;;;;;;5018019;28;93380;-71
2022/01/18 01:06:32;;;;;;;23.08;6.43;;;;;;;;;;5017780;28;93786;-70
2022/01/18 01:08:58;;;;;;;23.73;7.18;;;;;;;;;;5017537;28;92360;-71
2022/01/18 01:11:25;;;;;;;22.38;6.97;;;;;;;;;;5018394;28;93760;-70
2022/01/18 01:13:53;;;;;;;32.92;7.70;;;;;;;;;;5017538;28;94032;-71
2022/01/18 01:16:47;;;;;;;19.50;6.22;;;;;;;;;;5017843;28;92404;-70
2022/01/18 01:19:26;;;;;;;22.60;6.90;;;;;;;;;;5015795;28;94729;-71
2022/01/18 01:32:15;;;;;;;20.92;6.30;;;;;;;;;;5001848;28;93197;-70
2022/01/18 01:33:39;;;;;;;19.90;6.25;;;;;;;;;;5017319;28;93477;-70
2022/01/18 01:46:40;;;;;;;22.63;6.68;;;;;;;;;;5018588;28;95162;-70
2022/01/18 01:49:12;;;;;;;26.40;7.72;;;;;;;;;;5017212;28;93332;-70
2022/01/18 01:51:38;;;;;;;;;;;;;;;;;;5017811;28;92355;-70
2022/01/18 01:54:07;;;;;;;19.80;6.28;;;;;;;;;;5016285;28;121578;-70
2022/01/18 01:56:33;;;;;;;21.23;6.53;;;;;;;;;;5017194;28;94066;-70
2022/01/18 01:59:00;;;;;;;24.52;7.97;;;;;;;;;;5016974;28;92394;-71
2022/01/18 02:01:39;;;;;;;16.17;6.85;;;;;;;;;;5017337;28;92751;-70
2022/01/18 02:04:06;;;;;;;17.08;7.43;;;;;;;;;;5017867;28;92129;-70
2022/01/18 02:06:32;;;;;;;25.92;7.60;;;;;;;;;;5017313;28;92304;-70
2022/01/18 02:08:58;;;;;;;23.90;7.35;;;;;;;;;;5019965;28;93382;-70
2022/01/18 02:11:25;;;;;;;16.45;6.45;;;;;;;;;;5015524;28;94634;-70
2022/01/18 02:13:51;;;;;;;17.33;6.60;;;;;;;;;;5016560;28;96390;-70
2022/01/18 02:21:46;;;;;;;30.33;7.90;;;;;;;;;;5017086;28;93806;-71
2022/01/18 02:21:50;;;;;;;28.90;8.23;;;;;;;;;;5016617;28;93449;-70
2022/01/18 02:24:19;;;;;;;41.13;9.15;;;;;;;;;;5016704;28;93861;-70
2022/01/18 02:26:46;;;;;;;33.10;9.13;;;;;;;;;;4999314;28;92274;-70
2022/01/18 02:29:12;;;;;;;32.22;8.43;;;;;;;;;;5017450;28;93420;-70
2022/01/18 02:31:39;;;;;;;48.47;10.07;;;;;;;;;;5021265;28;93696;-70
2022/01/18 02:34:07;;;;;;;36.25;9.48;;;;;;;;;;5019974;28;92768;-70
2022/01/18 02:36:33;;;;;;;45.88;8.85;;;;;;;;;;5018274;28;96195;-71
2022/01/18 02:39:00;;;;;;;53.13;10.23;;;;;;;;;;5020512;28;92277;-70
2022/01/18 02:41:30;;;;;;;115.40;14.13;;;;;;;;;;5018275;28;93855;-70
2022/01/18 02:43:57;;;;;;;79.50;12.23;;;;;;;;;;5019147;28;93713;-70
2022/01/18 02:46:24;;;;;;;65.03;12.23;;;;;;;;;;5019471;28;92226;-70
2022/01/18 02:48:51;;;;;;;87.43;11.40;;;;;;;;;;5019531;28;93058;-71
2022/01/18 02:51:17;;;;;;;181.02;15.15;;;;;;;;;;5018832;28;93884;-70
2022/01/18 02:53:53;;;;;;;94.38;12.70;;;;;;;;;;5022099;28;91435;-70
2022/01/18 02:56:19;;;;;;;79.03;11.57;;;;;;;;;;5019323;28;93631;-71
2022/01/18 02:58:45;;;;;;;57.38;11.68;;;;;;;;;;5019385;28;92299;-70
2022/01/18 03:03:57;;;;;;;48.00;11.68;;;;;;;;;;5018788;28;94357;-70
2022/01/18 03:06:23;;;;;;;60.70;11.50;;;;;;;;;;5019050;28;92302;-70
2022/01/18 03:08:50;;;;;;;39.72;11.50;;;;;;;;;;5019366;28;93561;-70
2022/01/18 03:11:16;;;;;;;36.88;10.55;;;;;;;;;;5018997;28;93607;-70
2022/01/18 03:13:44;;;;;;;23.77;10.50;;;;;;;;;;5022259;28;92158;-70
2022/01/18 03:16:10;;;;;;;142.40;12.32;;;;;;;;;;5018919;28;94015;-70
2022/01/18 03:18:40;;;;;;;38.45;11.38;;;;;;;;;;5019058;28;91631;-71
2022/01/18 03:21:07;;;;;;;49.80;11.82;;;;;;;;;;5018573;28;92809;-70
2022/01/18 03:23:33;;;;;;;45.17;11.95;;;;;;;;;;5018718;28;93731;-70
2022/01/18 03:26:02;;;;;;;36.00;10.70;;;;;;;;;;5017227;28;94712;-70
2022/01/18 03:28:28;;;;;;;32.78;11.55;;;;;;;;;;5018582;28;95369;-70
2022/01/18 03:30:57;;;;;;;44.53;11.18;;;;;;;;;;5018060;28;93811;-70
2022/01/18 03:33:25;;;;;;;49.03;11.75;;;;;;;;;;5018734;28;92273;-70
2022/01/18 03:35:53;;;;;;;44.38;11.15;;;;;;;;;;5021712;28;93642;-70
2022/01/18 03:38:20;;;;;;;29.80;11.27;;;;;;;;;;5018525;28;92287;-70
2022/01/18 03:40:47;;;;;;;38.70;11.23;;;;;;;;;;5018583;28;93326;-70
2022/01/18 03:43:14;;;;;;;48.33;11.00;;;;;;;;;;5018170;28;92993;-71
2022/01/18 03:45:44;;;;;;;86.90;12.20;;;;;;;;;;5018357;28;92260;-70
2022/01/18 03:48:15;;;;;;;89.25;11.70;;;;;;;;;;5018377;28;93387;-71
2022/01/18 03:50:42;;;;;;;105.75;11.98;;;;;;;;;;5016679;28;96091;-70
2022/01/18 03:53:12;;;;;;;46.28;10.45;;;;;;;;;;5018547;28;92351;-70
2022/01/18 03:55:38;;;;;;;108.18;11.93;;;;;;;;;;5018356;28;92528;-70
2022/01/18 03:58:04;;;;;;;43.55;10.93;;;;;;;;;;5021150;28;93662;-70
2022/01/18 04:00:31;;;;;;;33.83;11.45;;;;;;;;;;5018401;28;93509;-71
2022/01/18 04:02:59;;;;;;;29.92;10.63;;;;;;;;;;5018086;28;93393;-70
2022/01/18 04:05:26;;;;;;;105.70;14.90;;;;;;;;;;5018352;28;92426;-70
2022/01/18 04:07:52;;;;;;;110.90;12.20;;;;;;;;;;5018512;28;93753;-70
2022/01/18 04:10:19;;;;;;;58.40;11.50;;;;;;;;;;5018067;28;93469;-71
2022/01/18 04:12:45;;;;;;;44.47;11.68;;;;;;;;;;5016867;28;92405;-70
2022/01/18 04:15:13;;;;;;;51.47;11.50;;;;;;;;;;5016563;28;94662;-71
2022/01/18 04:30:51;;;;;;;48.20;11.35;;;;;;;;;;5017574;28;94188;-70
2022/01/18 04:33:18;;;;;;;179.13;13.27;;;;;;;;;;5017984;28;91642;-70
2022/01/18 04:35:45;;;;;;;164.27;13.07;;;;;;;;;;5017868;28;93150;-71
2022/01/18 04:38:12;;;;;;;148.50;12.43;;;;;;;;;;5016473;28;95489;-70
2022/01/18 04:40:41;;;;;;;130.10;12.60;;;;;;;;;;5016223;28;94644;-71
2022/01/18 04:48:33;;;;;;;85.53;11.98;;;;;;;;;;5017500;28;93687;-70
2022/01/18 04:51:02;;;;;;;34.72;10.38;;;;;;;;;;5017009;28;93697;-70
2022/01/18 04:53:31;;;;;;;173.18;13.65;;;;;;;;;;5017295;28;93070;-71
2022/01/18 04:56:00;;;;;;;107.45;12.05;;;;;;;;;;5016382;28;93543;-70
2022/01/18 04:58:27;;;;;;;86.35;11.20;;;;;;;;;;5017569;28;92823;-70
2022/01/18 05:00:54;;;;;;;116.93;12.27;;;;;;;;;;5016545;28;93182;-71
2022/01/18 05:03:21;;;;;;;93.25;11.85;;;;;;;;;;5019007;28;93855;-71
2022/01/18 05:05:53;;;;;;;30.20;9.68;;;;;;;;;;5013107;28;95697;-71
2022/01/18 05:08:19;;;;;;;96.75;12.18;;;;;;;;;;5016271;28;95433;-71
2022/01/18 05:10:52;;;;;;;132.65;11.15;;;;;;;;;;5016037;28;93672;-72
2022/01/18 05:13:47;;;;;;;154.32;12.20;;;;;;;;;;5017391;28;92255;-71
2022/01/18 05:16:20;;;;;;;96.80;9.70;;;;;;;;;;5016984;28;92499;-71
2022/01/18 05:19:12;;;;;;;;;;;;;;;;;;5018166;28;93490;-71
2022/01/18 05:24:29;;;;;;;253.90;12.40;;;;;;;;;;5017571;28;93934;-71
2022/01/18 05:26:56;;;;;;;155.48;11.13;;;;;;;;;;5019928;28;93581;-71
2022/01/18 05:29:23;;;;;;;95.60;10.48;;;;;;;;;;5017185;28;93820;-70
2022/01/18 05:31:49;;;;;;;34.20;9.25;;;;;;;;;;5014663;28;95550;-71
2022/01/18 05:34:16;;;;;;;191.88;13.70;;;;;;;;;;5017623;28;92483;-71
2022/01/18 05:36:42;;;;;;;57.03;9.82;;;;;;;;;;5016957;28;93484;-71
2022/01/18 05:39:09;;;;;;;125.68;12.20;;;;;;;;;;5017356;28;93601;-71
2022/01/18 05:41:37;;;;;;;73.13;9.25;;;;;;;;;;5016907;28;92679;-71
2022/01/18 05:44:03;;;;;;;42.72;8.90;;;;;;;;;;5017550;28;93309;-71
2022/01/18 05:46:31;;;;;;;113.97;10.75;;;;;;;;;;5017280;28;92721;-71
2022/01/18 05:49:00;;;;;;;94.75;9.98;;;;;;;;;;5020367;28;91570;-71
2022/01/18 05:51:27;;;;;;;61.08;8.68;;;;;;;;;;5016654;28;93939;-70
2022/01/18 05:53:54;;;;;;;156.30;11.93;;;;;;;;;;5017506;28;92420;-71
2022/01/18 05:56:20;;;;;;;33.78;8.30;;;;;;;;;;5014534;28;94645;-71
2022/01/18 05:58:48;;;;;;;84.05;9.15;;;;;;;;;;5017463;28;93109;-70
2022/01/18 06:01:26;;;;;;;126.88;9.98;;;;;;;;;;5017357;28;92242;-71
2022/01/18 06:09:04;;;;;;;129.88;8.13;;;;;;;;;;5017060;28;92386;-71
2022/01/18 06:11:31;;;;;;;97.60;7.90;;;;;;;;;;5019203;28;92963;-71
2022/01/18 06:13:58;;;;;;;88.38;7.15;;;;;;;;;;5017737;28;91614;-71
2022/01/18 06:16:26;;;;;;;103.63;8.73;;;;;;;;;;5016727;28;92372;-71
2022/01/18 06:18:54;;;;;;;84.13;8.02;;;;;;;;;;5016221;28;93523;-71
2022/01/18 06:21:20;;;;;;;54.20;6.97;;;;;;;;;;5015186;28;94750;-71
2022/01/18 06:23:47;;;;;;;122.00;8.25;;;;;;;;;;5016991;28;95824;-71
2022/01/18 06:26:16;;;;;;;132.05;7.03;;;;;;;;;;5016275;28;93650;-71
2022/01/18 06:28:43;;;;;;;89.88;7.25;;;;;;;;;;5016172;28;92305;-71
2022/01/18 06:31:14;;;;;;;166.68;7.88;;;;;;;;;;5016464;28;93368;-71
2022/01/18 06:33:41;;;;;;;86.72;6.85;;;;;;;;;;5019104;28;93324;-71
2022/01/18 06:36:07;;;;;;;53.53;6.40;;;;;;;;;;5016779;28;93403;-71
2022/01/18 06:38:34;;;;;;;112.70;7.53;;;;;;;;;;5016104;28;93171;-73
2022/01/18 06:41:01;;;;;;;43.60;5.85;;;;;;;;;;5016108;28;92418;-71
2022/01/18 06:43:27;;;;;;;119.75;9.48;;;;;;;;;;5016657;28;93459;-72
2022/01/18 06:45:54;;;;;;;95.43;8.43;;;;;;;;;;5014056;28;96066;-71
2022/01/18 06:48:20;;;;;;;95.95;9.93;;;;;;;;;;5016728;28;92230;-71
2022/01/18 06:50:47;;;;;;;99.05;8.85;;;;;;;;;;5016812;28;93396;-71
2022/01/18 06:53:13;;;;;;;138.73;10.55;;;;;;;;;;5016460;28;93596;-71
2022/01/18 06:55:39;;;;;;;242.93;10.25;;;;;;;;;;5018812;28;92326;-71
2022/01/18 06:58:05;;;;;;;230.02;9.30;;;;;;;;;;5015737;28;93531;-71
2022/01/18 07:00:32;;;;;;;125.93;8.30;;;;;;;;;;5015515;28;92615;-71
2022/01/18 07:02:58;;;;;;;205.77;10.02;;;;;;;;;;5015050;28;93483;-71
2022/01/18 07:05:25;;;;;;;156.20;9.65;;;;;;;;;;5015736;28;93566;-71
2022/01/18 07:07:52;;;;;;;134.93;9.02;;;;;;;;;;5015560;28;92449;-71
2022/01/18 07:10:18;;;;;;;109.68;8.43;;;;;;;;;;5014235;28;94646;-71
2022/01/18 07:12:45;;;;;;;55.80;7.95;;;;;;;;;;5015265;28;92515;-71
2022/01/18 07:15:12;;;;;;;183.10;9.32;;;;;;;;;;5019550;28;92181;-71
2022/01/18 07:17:40;;;;;;;83.32;7.68;;;;;;;;;;5015621;28;93537;-71
2022/01/18 07:20:07;;;;;;;69.90;6.30;;;;;;;;;;5019188;28;92356;-71
2022/01/18 07:22:34;;;;;;;160.65;8.73;;;;;;;;;;5019723;28;93536;-72
2022/01/18 07:25:02;;;;;;;84.90;6.15;;;;;;;;;;5018826;28;93672;-71
2022/01/18 07:27:28;;;;;;;14.65;4.53;;;;;;;;;;5019687;28;91540;-71
2022/01/18 07:29:55;;;;;;;80.55;5.15;;;;;;;;;;5019354;28;93773;-71
2022/01/18 07:32:21;;;;;;;152.32;6.38;;;;;;;;;;5019308;28;92675;-71
2022/01/18 07:34:55;;;;;;;139.55;5.63;;;;;;;;;;5017169;28;94719;-72
2022/01/18 07:37:22;;;;;;;126.85;4.97;;;;;;;;;;5021467;28;94896;-71
2022/01/18 07:39:50;;;;;;;113.82;4.32;;;;;;;;;;5018877;28;92340;-71
2022/01/18 07:42:16;;;;;;;141.95;5.15;;;;;;;;;;5018358;28;93434;-72
2022/01/18 07:44:43;;;;;;;48.58;4.05;;;;;;;;;;5018303;28;93928;-72
2022/01/18 07:47:09;;;;;;;129.52;7.30;;;;;;;;;;5019128;28;93081;-71
2022/01/18 07:49:37;;;;;;;64.03;5.85;;;;;;;;;;5018222;28;93444;-72
2022/01/18 07:52:04;;;;;;;59.20;5.00;;;;;;;;;;5019410;28;92757;-72
2022/01/18 07:54:31;;;;;;;49.95;4.85;;;;;;;;;;5018635;28;92343;-72
2022/01/18 07:56:57;;;;;;;37.63;5.05;;;;;;;;;;5019148;28;93271;-71
2022/01/18 07:59:27;;;;;;;23.88;4.55;;;;;;;;;;5020354;28;96004;-71
2022/01/18 08:01:53;;;;;;;46.90;4.65;;;;;;;;;;5018962;28;95928;-71
2022/01/18 08:04:21;;;;;;;44.53;4.43;;;;;;;;;;5018620;28;93046;-71
2022/01/18 08:06:47;;;;;;;68.57;5.22;;;;;;;;;;5019001;28;92327;-71
2022/01/18 08:09:18;;;;;;;47.15;5.53;;;;;;;;;;5018449;28;93614;-71
2022/01/18 08:11:45;;;;;;;37.35;6.07;;;;;;;;;;5018543;28;93883;-72
2022/01/18 08:14:13;;;;;;;74.32;8.20;;;;;;;;;;5018757;28;92335;-71
2022/01/18 08:16:49;;;;;;;83.68;7.82;;;;;;;;;;5019195;28;93704;-71
2022/01/18 08:19:16;;;;;;;24.58;6.90;;;;;;;;;;5018193;28;93656;-71
2022/01/18 08:21:43;;;;;;;47.95;8.25;;;;;;;;;;5021532;28;92466;-71
2022/01/18 08:24:11;;;;;;;110.28;11.20;;;;;;;;;;5015889;28;95843;-72
2022/01/18 08:26:38;;;;;;;116.88;10.00;;;;;;;;;;5017850;28;92284;-72
2022/01/18 08:29:04;;;;;;;116.60;10.05;;;;;;;;;;5017871;28;93526;-71
2022/01/18 08:31:30;;;;;;;145.98;10.35;;;;;;;;;;5017729;28;93531;-72
2022/01/18 08:33:57;;;;;;;96.50;9.40;;;;;;;;;;5018089;28;93042;-73
2022/01/18 08:36:23;;;;;;;163.50;10.43;;;;;;;;;;5017859;28;93307;-72
2022/01/18 08:38:50;;;;;;;208.98;11.85;;;;;;;;;;5017490;28;93165;-70
2022/01/18 08:41:17;;;;;;;148.23;10.25;;;;;;;;;;5018204;28;91539;-70
2022/01/18 08:43:43;;;;;;;75.85;8.20;;;;;;;;;;5020549;28;92606;-70
2022/01/18 08:46:10;;;;;;;94.07;8.77;;;;;;;;;;5016769;28;92769;-71
2022/01/18 08:48:37;;;;;;;176.82;9.75;;;;;;;;;;5016479;28;94897;-71
2022/01/18 08:51:04;;;;;;;182.15;10.73;;;;;;;;;;5015685;28;94175;-71
2022/01/18 08:53:31;;;;;;;140.38;9.75;;;;;;;;;;5017589;28;92147;-71
2022/01/18 08:55:57;;;;;;;92.80;8.68;;;;;;;;;;5017464;28;93444;-72
2022/01/18 08:58:25;;;;;;;55.38;7.55;;;;;;;;;;5017988;28;93641;-71
2022/01/18 09:00:52;;;;;;;103.78;9.10;;;;;;;;;;5017273;28;92355;-72
2022/01/18 09:03:18;;;;;;;120.65;9.10;;;;;;;;;;5016919;28;92923;-72
2022/01/18 09:05:45;;;;;;;130.23;8.15;;;;;;;;;;5020855;28;92224;-71
2022/01/18 09:08:13;;;;;;;60.40;6.43;;;;;;;;;;5001530;28;93034;-71
2022/01/18 09:10:40;;;;;;;223.95;10.07;;;;;;;;;;4997648;28;93764;-73
2022/01/18 09:13:07;;;;;;;128.35;8.20;;;;;;;;;;5009242;28;96829;-78
2022/01/18 09:15:34;;;;;;;130.13;7.93;;;;;;;;;;5016967;28;95850;-73
2022/01/18 09:18:00;;;;;;;94.75;7.72;;;;;;;;;;5016625;28;93541;-71
2022/01/18 09:20:26;;;;;;;191.23;9.07;;;;;;;;;;5017495;28;92291;-74
2022/01/18 09:22:53;;;;;;;105.20;9.02;;;;;;;;;;5017251;28;93487;-72
2022/01/18 09:25:20;;;;;;;119.30;9.93;;;;;;;;;;5020030;28;93648;-72
2022/01/18 09:27:47;;;;;;;118.97;8.77;;;;;;;;;;5016813;28;92756;-71
2022/01/18 09:30:15;;;;;;;223.63;9.82;;;;;;;;;;5017419;28;92532;-70
2022/01/18 09:32:42;;;;;;;105.00;9.18;;;;;;;;;;5016192;28;92421;-73
2022/01/18 09:35:09;;;;;;;121.10;8.57;;;;;;;;;;5016841;28;93510;-74
2022/01/18 09:37:35;;;;;;;168.40;10.73;;;;;;;;;;5014966;28;95895;-72
2022/01/18 09:40:03;;;;;;;174.05;7.63;;;;;;;;;;5016989;28;92372;-73
2022/01/18 09:42:39;;;;;;;68.72;6.82;;;;;;;;;;5016082;28;93371;-72
2022/01/18 09:45:07;;;;;;;208.77;7.30;;;;;;;;;;5015298;28;94498;-72
2022/01/18 09:47:34;;;;;;;60.75;6.15;;;;;;;;;;5019807;28;92355;-70
2022/01/18 09:50:01;;;;;;;168.63;6.93;;;;;;;;;;5017236;28;93709;-71
2022/01/18 09:52:27;;;;;;;84.68;6.68;;;;;;;;;;5016808;28;92290;-72
2022/01/18 09:54:59;;;;;;;61.40;5.97;;;;;;;;;;5017837;28;93621;-73
2022/01/18 09:57:25;;;;;;;117.53;6.00;;;;;;;;;;5017004;28;93819;-74
2022/01/18 09:59:51;;;;;;;53.63;5.10;;;;;;;;;;5016062;28;92233;-74
2022/01/18 10:02:19;;;;;;;66.10;5.68;;;;;;;;;;5015866;28;94588;-72
2022/01/18 10:04:48;;;;;;;125.30;7.20;;;;;;;;;;5017130;28;93683;-73
2022/01/18 10:07:14;;;;;;;116.05;6.10;;;;;;;;;;5016141;28;92302;-74
2022/01/18 10:09:41;;;;;;;74.90;5.57;;;;;;;;;;5019273;28;92897;-72
2022/01/18 10:12:12;;;;;;;82.15;5.60;;;;;;;;;;5016727;28;92377;-73
2022/01/18 10:14:39;;;;;;;181.25;9.02;;;;;;;;;;5017047;28;93603;-73
2022/01/18 10:17:06;;;;;;;133.43;7.50;;;;;;;;;;5016211;28;93673;-73
2022/01/18 10:19:37;;;;;;;18.00;5.47;;;;;;;;;;5016422;28;92448;-71
2022/01/18 10:22:07;;;;;;;67.97;6.00;;;;;;;;;;5016872;28;92254;-71
2022/01/18 10:24:33;;;;;;;134.30;8.73;;;;;;;;;;5016638;28;93245;-73
2022/01/18 10:27:00;;;;;;;101.75;6.65;;;;;;;;;;5014290;28;94695;-72
2022/01/18 10:29:28;;;;;;;79.35;8.30;;;;;;;;;;5015888;28;95849;-73
2022/01/18 10:32:09;;;;;;;35.72;6.10;;;;;;;;;;5019590;28;93549;-71
2022/01/18 10:37:08;;;;;;;164.85;9.30;;;;;;;;;;5015772;28;94127;-73
2022/01/18 10:39:42;;;;;;;108.00;7.72;;;;;;;;;;5015768;28;92277;-72
2022/01/18 10:42:13;;;;;;;53.72;7.35;;;;;;;;;;5015553;28;93813;-72
2022/01/18 10:44:40;;;;;;;39.72;7.40;;;;;;;;;;5017001;28;92947;-72
2022/01/18 10:47:06;;;;;;;55.53;7.53;;;;;;;;;;5016103;28;92538;-72
2022/01/18 10:49:46;;;;;;;80.43;8.10;;;;;;;;;;5016701;28;93493;-71
2022/01/18 10:52:15;;;;;;;28.52;7.68;;;;;;;;;;5014584;28;95738;-73
2022/01/18 10:54:43;;;;;;;49.08;8.05;;;;;;;;;;5022865;28;92413;-73
2022/01/18 10:57:12;;;;;;;85.90;10.15;;;;;;;;;;5019981;28;92885;-72
2022/01/18 10:59:38;;;;;;;57.55;9.68;;;;;;;;;;5018949;28;92317;-72
2022/01/18 11:02:10;;;;;;;24.13;9.90;;;;;;;;;;5018533;28;97082;-72
2022/01/18 11:04:38;;;;;;;15.60;9.55;;;;;;;;;;5019863;28;93613;-72
2022/01/18 11:07:05;;;;;;;119.53;11.48;;;;;;;;;;5019691;28;92289;-73
2022/01/18 11:09:33;;;;;;;55.03;9.57;;;;;;;;;;5019395;28;93687;-72
2022/01/18 11:12:00;;;;;;;43.03;10.07;;;;;;;;;;5018148;28;92973;-73
2022/01/18 11:14:26;;;;;;;54.35;10.57;;;;;;;;;;5019537;28;92210;-72
2022/01/18 11:16:57;;;;;;;45.40;10.13;;;;;;;;;;5020226;28;94802;-72
2022/01/18 11:21:53;;;;;;;36.45;10.50;;;;;;;;;;5019001;28;94081;-73
2022/01/18 11:24:19;;;;;;;58.45;11.10;;;;;;;;;;5018762;28;93436;-72
2022/01/18 11:26:47;;;;;;;47.67;11.95;;;;;;;;;;5018260;28;92309;-73
2022/01/18 11:29:16;;;;;;;114.78;10.85;;;;;;;;;;5018981;28;93537;-72
2022/01/18 11:31:50;;;;;;;36.28;10.45;;;;;;;;;;5018662;28;92714;-73
2022/01/18 11:34:23;;;;;;;146.45;12.25;;;;;;;;;;5019332;28;91526;-73
2022/01/18 11:36:50;;;;;;;56.50;11.77;;;;;;;;;;5012469;28;93620;-71
2022/01/18 11:39:19;;;;;;;46.60;12.50;;;;;;;;;;5000789;28;92376;-75
2022/01/18 11:41:46;;;;;;;47.60;10.30;;;;;;;;;;4996748;28;94688;-74
2022/01/18 11:44:14;;;;;;;51.55;11.15;;;;;;;;;;4998500;28;93941;-72
2022/01/18 11:46:44;;;;;;;79.65;11.65;;;;;;;;;;4998572;28;92404;-73
2022/01/18 11:49:16;;;;;;;71.38;11.50;;;;;;;;;;4998809;28;93512;-78
2022/01/18 11:51:50;;;;;;;102.10;11.60;;;;;;;;;;4998129;28;93650;-72
2022/01/18 11:54:21;;;;;;;77.65;11.38;;;;;;;;;;4998389;28;92298;-72
2022/01/18 11:56:47;;;;;;;60.33;10.75;;;;;;;;;;4994412;28;98445;-74
2022/01/18 11:59:15;;;;;;;54.90;11.20;;;;;;;;;;4997756;28;98966;-72
2022/01/18 12:01:45;;;;;;;86.50;11.68;;;;;;;;;;4994222;28;99484;-70
2022/01/18 12:04:12;;;;;;;63.63;11.18;;;;;;;;;;4993173;28;99806;-74
2022/01/18 12:06:45;;;;;;;25.58;10.77;;;;;;;;;;4993766;28;99402;-74
2022/01/18 12:09:50;;;;;;;31.73;11.90;;;;;;;;;;4993791;28;100085;-73
2022/01/18 12:12:35;;;;;;;31.13;10.35;;;;;;;;;;4952381;28;99565;-74
2022/01/18 12:15:02;;;;;;;30.83;10.57;;;;;;;;;;4953036;28;98863;-73
2022/01/18 12:17:39;;;;;;;40.00;11.35;;;;;;;;;;4977349;28;99762;-73
2022/01/18 12:20:06;;;;;;;41.25;10.65;;;;;;;;;;4993513;28;99831;-73
2022/01/18 12:22:51;;;;;;;25.95;10.05;;;;;;;;;;4997405;28;98438;-74
2022/01/18 12:25:30;;;;;;;28.60;8.30;;;;;;;;;;4993911;28;98860;-74
2022/01/18 12:28:02;;;;;;;28.27;7.45;;;;;;;;;;4994817;28;98286;-72
2022/01/18 12:30:54;;;;;;;30.98;7.93;;;;;;;;;;4994768;28;99609;-73
2022/01/18 12:33:21;;;;;;;18.20;7.85;;;;;;;;;;4993406;28;100253;-73
2022/01/18 12:35:48;;;;;;;40.80;9.75;;;;;;;;;;5003300;28;98580;-74
2022/01/18 12:38:24;;;;;;;59.17;9.85;;;;;;;;;;4994866;28;99711;-73
2022/01/18 12:40:53;;;;;;;37.50;11.25;;;;;;;;;;4994156;28;99733;-74
2022/01/18 12:46:14;;;;;;;45.47;11.38;;;;;;;;;;4996239;28;99625;-73
2022/01/18 12:48:41;;;;;;;34.38;13.02;;;;;;;;;;4993481;28;98374;-72
2022/01/18 12:51:09;;;;;;;34.05;13.00;;;;;;;;;;4993888;28;99500;-74
2022/01/18 12:53:39;;;;;;;42.38;14.80;;;;;;;;;;4993417;28;99012;-71
2022/01/18 12:56:08;;;;;;;69.75;15.13;;;;;;;;;;4993436;28;98429;-71
2022/01/18 12:59:04;;;;;;;49.58;16.98;;;;;;;;;;5059682;27;86366;-73
2022/01/18 13:01:31;;;;;;;54.42;16.90;;;;;;;;;;5036201;28;89679;-72
2022/01/18 13:03:57;;;;;;;62.35;17.55;;;;;;;;;;5035449;28;89446;-72
2022/01/18 13:06:25;;;;;;;54.90;17.55;;;;;;;;;;5036311;28;88930;-72
2022/01/18 13:08:57;;;;;;;73.00;19.23;;;;;;;;;;5036006;28;90300;-71
2022/01/18 13:11:25;;;;;;;60.08;20.27;;;;;;;;;;5036343;28;89657;-71
2022/01/18 13:14:01;;;;;;;54.00;20.48;;;;;;;;;;5036306;28;88801;-70
2022/01/18 13:23:09;;;;;;;70.37;23.20;;;;;;;;;;5022618;27;1252031;-71
2022/01/18 13:25:55;;;;;;;56.38;22.13;;;;;;;;;;5034682;28;90063;-70
2022/01/18 13:28:38;;;;;;;62.40;23.73;;;;;;;;;;5036238;28;89857;-73
2022/01/18 13:31:19;;;;;;;61.85;22.23;;;;;;;;;;5035201;27;90081;-73
2022/01/18 13:33:55;;;;;;;54.22;22.48;;;;;;;;;;5042266;27;90113;-71
2022/01/18 13:36:22;;;;;;;57.45;22.25;;;;;;;;;;5056221;27;89232;-72
2022/01/18 13:38:51;;;;;;;64.60;22.23;;;;;;;;;;5056435;27;88722;-72
2022/01/18 13:41:19;;;;;;;59.50;23.92;;;;;;;;;;5056356;27;89721;-72
2022/01/18 13:43:47;;;;;;;63.35;25.45;;;;;;;;;;5057633;27;88892;-72
2022/01/18 13:46:23;;;;;;;71.72;24.90;;;;;;;;;;5036131;27;89789;-73
2022/01/18 13:49:27;;;;;;;71.22;24.95;;;;;;;;;;5059603;27;86993;-73
2022/01/18 13:52:07;;;;;;;70.00;24.75;;;;;;;;;;5036690;27;88929;-72
2022/01/18 13:54:43;;;;;;;60.67;24.60;;;;;;;;;;5036180;28;89353;-73
2022/01/18 13:57:11;;;;;;;67.03;25.02;;;;;;;;;;5036140;28;88701;-72
2022/01/18 13:59:37;;;;;;;61.92;23.40;;;;;;;;;;5035957;28;90442;-72
2022/01/18 14:02:11;;;;;;;68.20;24.65;;;;;;;;;;5036207;28;90300;-72
2022/01/18 14:04:37;;;;;;;60.90;23.80;;;;;;;;;;5036454;27;89411;-72
2022/01/18 14:07:05;;;;;;;57.53;22.80;;;;;;;;;;5036053;28;90135;-72
2022/01/18 14:09:31;;;;;;;64.20;23.48;;;;;;;;;;5038612;28;90945;-73
2022/01/18 14:11:58;;;;;;;64.97;24.02;;;;;;;;;;5036085;28;90571;-73
2022/01/18 14:14:25;;;;;;;69.18;24.70;;;;;;;;;;5036003;28;89744;-73
2022/01/18 14:16:55;;;;;;;75.75;24.38;;;;;;;;;;5035956;28;88948;-72
2022/01/18 14:19:27;;;;;;;82.32;24.45;;;;;;;;;;5035671;28;90419;-72
2022/01/18 14:21:54;;;;;;;60.58;24.20;;;;;;;;;;5035086;28;89032;-71
2022/01/18 14:24:22;;;;;;;62.33;23.55;;;;;;;;;;5035857;28;88798;-72
2022/01/18 14:26:52;;;;;;;57.67;23.17;;;;;;;;;;5035930;28;90690;-72
2022/01/18 14:29:27;;;;;;;62.17;25.08;;;;;;;;;;5035668;28;89820;-72
2022/01/18 14:32:07;;;;;;;74.82;23.67;;;;;;;;;;5038464;28;88807;-71
2022/01/18 14:34:36;;;;;;;63.83;23.02;;;;;;;;;;5035534;28;90132;-74
2022/01/18 14:37:09;;;;;;;62.85;23.48;;;;;;;;;;5035645;27;88828;-72
2022/01/18 14:39:57;;;;;;;64.85;22.42;;;;;;;;;;5035857;28;90527;-74
2022/01/18 14:42:26;;;;;;;60.90;22.55;;;;;;;;;;5035574;27;90135;-71
2022/01/18 14:47:25;;;;;;;64.72;23.42;;;;;;;;;;5035075;28;91701;-71
2022/01/18 14:49:53;;;;;;;62.38;22.30;;;;;;;;;;5035482;28;89664;-73
2022/01/18 14:52:20;;;;;;;69.43;22.92;;;;;;;;;;5035424;28;88949;-71
2022/01/18 14:54:46;;;;;;;69.18;23.38;;;;;;;;;;5038233;28;90777;-71
2022/01/18 14:57:12;;;;;;;69.10;24.77;;;;;;;;;;5048739;27;89238;-72
2022/01/18 14:59:39;;;;;;;77.88;24.25;;;;;;;;;;5048486;27;89693;-73
2022/01/18 15:02:06;;;;;;;72.13;23.25;;;;;;;;;;5042072;28;89598;-73
2022/01/18 15:04:32;;;;;;;59.22;23.45;;;;;;;;;;5042042;27;88935;-72
2022/01/18 15:06:59;;;;;;;70.95;23.45;;;;;;;;;;5041758;28;90312;-74
2022/01/18 15:09:28;;;;;;;66.15;24.30;;;;;;;;;;5041478;28;89596;-74
2022/01/18 15:11:57;;;;;;;64.20;23.85;;;;;;;;;;5041642;28;88894;-73
2022/01/18 15:14:24;;;;;;;68.65;22.38;;;;;;;;;;5041864;28;90315;-73
2022/01/18 15:16:51;;;;;;;65.18;21.40;;;;;;;;;;5043835;28;89552;-73
2022/01/18 15:19:17;;;;;;;71.82;26.55;;;;;;;;;;5041750;28;90109;-74
2022/01/18 15:21:43;;;;;;;63.97;24.13;;;;;;;;;;5041434;28;89849;-77
2022/01/18 15:24:10;;;;;;;66.03;23.25;;;;;;;;;;5041516;28;88832;-73
2022/01/18 15:26:36;;;;;;;56.22;21.90;;;;;;;;;;5040927;28;90513;-72
2022/01/18 15:29:03;;;;;;;62.92;23.92;;;;;;;;;;5041477;28;88943;-75
2022/01/18 15:31:29;;;;;;;61.85;23.52;;;;;;;;;;5041183;28;88783;-73
2022/01/18 15:33:56;;;;;;;67.90;23.73;;;;;;;;;;5041349;27;90202;-73
2022/01/18 15:36:22;;;;;;;65.60;23.05;;;;;;;;;;5041193;28;90057;-78
2022/01/18 15:38:48;;;;;;;64.22;21.20;;;;;;;;;;5044502;28;88952;-73
2022/01/18 15:41:15;;;;;;;52.72;22.30;;;;;;;;;;5040959;28;89643;-72
2022/01/18 15:43:41;;;;;;;55.75;19.70;;;;;;;;;;5041312;28;88830;-74
2022/01/18 15:46:10;;;;;;;60.47;21.23;;;;;;;;;;5041201;28;90271;-74
2022/01/18 15:48:40;;;;;;;60.83;21.50;;;;;;;;;;5054765;27;89318;-75
2022/01/18 15:51:06;;;;;;;70.38;22.50;;;;;;;;;;5061590;27;88772;-76